createdAt,value
2022-12-25T00:02:37.610Z,100.00
2022-12-25T00:05:41.067Z,99.58
2022-12-25T00:08:44.511Z,99.22
2022-12-25T00:11:48.384Z,98.95
2022-12-25T00:14:51.504Z,98.15
2022-12-25T00:17:55.506Z,97.50
2022-12-25T00:21:04.830Z,97.01
2022-12-25T00:24:08.095Z,96.31
2022-12-25T00:27:11.928Z,96.41
2022-12-25T00:30:15.345Z,97.64
2022-12-25T00:33:18.391Z,97.96
2022-12-25T00:36:23.077Z,97.86
2022-12-25T00:39:26.018Z,98.00
2022-12-25T00:42:29.352Z,97.74
2022-12-25T00:45:32.350Z,98.41
2022-12-25T00:48:35.858Z,98.71
2022-12-25T00:51:38.909Z,98.67
2022-12-25T00:54:42.330Z,98.63
2022-12-25T00:57:45.191Z,98.33
2022-12-25T01:00:49.185Z,98.77
2022-12-25T01:03:53.189Z,97.73
2022-12-25T01:06:56.406Z,97.64
2022-12-25T01:10:18.727Z,98.08
2022-12-25T01:13:22.061Z,98.14
2022-12-25T01:16:25.559Z,98.15
2022-12-25T01:19:28.915Z,98.24
2022-12-25T01:22:31.830Z,98.31
2022-12-25T01:25:35.122Z,98.59
2022-12-25T01:28:38.974Z,98.82
2022-12-25T01:31:43.446Z,99.06
2022-12-25T01:34:49.319Z,100.00
2022-12-25T01:37:57.117Z,100.00
2022-12-25T01:41:00.610Z,99.66
2022-12-25T01:44:36.877Z,99.54
2022-12-25T01:47:39.949Z,99.57
2022-12-25T01:50:48.102Z,99.34
2022-12-25T01:53:51.144Z,99.12
2022-12-25T01:56:59.426Z,99.14
2022-12-25T02:00:02.817Z,99.30
2022-12-25T02:03:07.571Z,99.20
2022-12-25T02:06:12.218Z,98.80
2022-12-25T02:09:15.725Z,98.73
2022-12-25T02:12:22.735Z,98.85
2022-12-25T02:15:33.223Z,98.52
2022-12-25T02:18:43.908Z,98.06
2022-12-25T02:21:59.020Z,97.33
2022-12-25T02:25:17.564Z,97.45
2022-12-25T02:28:29.518Z,97.95
2022-12-25T02:31:39.202Z,98.03
2022-12-25T02:35:05.940Z,98.17
2022-12-25T02:38:20.753Z,97.78
2022-12-25T02:41:23.703Z,97.65
2022-12-25T02:44:46.556Z,97.63
2022-12-25T02:48:08.275Z,97.79
2022-12-25T02:51:32.093Z,97.55
2022-12-25T02:54:57.267Z,96.94
2022-12-25T02:58:23.004Z,96.71
2022-12-25T03:01:47.719Z,96.61
2022-12-25T03:05:10.143Z,97.35
2022-12-25T03:08:20.634Z,97.59
2022-12-25T03:11:32.814Z,98.47
2022-12-25T03:14:54.268Z,98.35
2022-12-25T03:17:59.726Z,98.92
2022-12-25T03:21:21.338Z,99.39
2022-12-25T03:24:42.921Z,99.76
2022-12-25T03:27:46.866Z,99.16
2022-12-25T03:31:12.252Z,99.21
2022-12-25T03:34:40.789Z,99.03
2022-12-25T03:38:27.078Z,98.98
2022-12-25T03:42:19.052Z,98.43
2022-12-25T03:45:47.264Z,96.81
2022-12-25T03:49:11.778Z,96.39
2022-12-25T03:52:34.869Z,96.15
2022-12-25T03:55:57.239Z,97.04
2022-12-25T03:59:23.515Z,96.93
2022-12-25T04:02:45.439Z,96.26
2022-12-25T04:06:08.548Z,96.41
2022-12-25T04:09:30.405Z,96.84
2022-12-25T04:12:52.106Z,96.61
2022-12-25T04:16:14.081Z,96.78
2022-12-25T04:19:36.817Z,97.48
2022-12-25T04:22:58.313Z,98.19
2022-12-25T04:26:20.625Z,97.94
2022-12-25T04:29:42.326Z,98.33
2022-12-25T04:33:04.227Z,99.16
2022-12-25T04:36:11.265Z,100.00
2022-12-25T04:39:14.476Z,99.62
2022-12-25T04:42:17.726Z,98.86
2022-12-25T04:45:20.985Z,98.79
2022-12-25T04:48:24.447Z,100.00
2022-12-25T04:51:27.694Z,100.00
2022-12-25T04:54:30.893Z,100.00
2022-12-25T04:57:34.173Z,100.00
2022-12-25T05:00:37.569Z,99.51
2022-12-25T05:03:41.324Z,98.70
2022-12-25T05:06:45.196Z,98.24
2022-12-25T05:09:48.485Z,98.01
2022-12-25T05:12:51.832Z,97.72
2022-12-25T05:15:55.113Z,98.28
2022-12-25T05:18:58.132Z,98.83
2022-12-25T05:22:01.368Z,99.47
2022-12-25T05:25:04.585Z,99.87
2022-12-25T05:28:08.176Z,100.00
2022-12-25T05:31:11.592Z,100.00
2022-12-25T05:34:14.883Z,100.00
2022-12-25T05:37:17.798Z,100.00
2022-12-25T05:40:21.084Z,99.52
2022-12-25T05:43:24.278Z,98.26
2022-12-25T05:46:27.884Z,99.14
2022-12-25T05:49:30.897Z,100.00
2022-12-25T05:52:34.780Z,100.00
2022-12-25T05:55:38.834Z,100.00
2022-12-25T05:58:42.065Z,100.00
2022-12-25T06:01:45.116Z,99.26
2022-12-25T06:04:48.573Z,98.66
2022-12-25T06:07:51.758Z,98.38
2022-12-25T06:10:55.382Z,97.98
2022-12-25T06:13:58.309Z,97.92
2022-12-25T06:17:01.849Z,98.13
2022-12-25T06:20:06.513Z,97.91
2022-12-25T06:23:09.899Z,98.03
2022-12-25T06:26:16.847Z,98.09
2022-12-25T06:29:20.148Z,97.96
2022-12-25T06:32:23.302Z,96.92
2022-12-25T06:35:27.140Z,95.83
2022-12-25T06:38:30.066Z,95.15
2022-12-25T06:41:33.716Z,94.52
2022-12-25T06:44:36.589Z,94.43
2022-12-25T06:47:39.904Z,94.07
2022-12-25T06:50:44.335Z,94.65
2022-12-25T06:53:48.920Z,94.72
2022-12-25T06:56:51.803Z,95.49
2022-12-25T06:59:55.669Z,95.77
2022-12-25T07:02:58.450Z,96.35
2022-12-25T07:06:01.554Z,96.51
2022-12-25T07:09:04.406Z,96.41
2022-12-25T07:12:13.619Z,96.62
2022-12-25T07:15:16.712Z,97.22
2022-12-25T07:18:19.919Z,98.03
2022-12-25T07:21:22.793Z,98.08
2022-12-25T07:24:25.954Z,97.49
2022-12-25T07:27:28.982Z,96.50
2022-12-25T07:30:32.761Z,93.65
2022-12-25T07:33:36.335Z,92.94
2022-12-25T07:36:39.701Z,93.17
2022-12-25T07:39:42.634Z,94.19
2022-12-25T07:42:45.821Z,94.76
2022-12-25T07:45:48.728Z,94.85
2022-12-25T07:48:52.055Z,94.28
2022-12-25T07:51:55.299Z,93.23
2022-12-25T07:54:58.511Z,93.15
2022-12-25T07:58:01.515Z,93.84
2022-12-25T08:01:07.530Z,93.97
2022-12-25T08:04:11.870Z,96.50
2022-12-25T08:07:14.880Z,96.04
2022-12-25T08:10:19.304Z,96.40
2022-12-25T08:13:22.353Z,95.55
2022-12-25T08:16:26.171Z,95.11
2022-12-25T08:19:29.388Z,94.67
2022-12-25T08:22:32.653Z,95.10
2022-12-25T08:25:35.626Z,94.75
2022-12-25T08:28:39.104Z,93.38
2022-12-25T08:31:46.491Z,92.60
2022-12-25T08:34:50.143Z,91.58
2022-12-25T08:37:53.035Z,91.17
2022-12-25T08:40:56.211Z,91.33
2022-12-25T08:43:59.266Z,90.99
2022-12-25T08:47:02.476Z,89.45
2022-12-25T08:50:06.224Z,86.03
2022-12-25T08:53:09.735Z,89.17
2022-12-25T08:56:13.398Z,88.37
2022-12-25T08:59:18.060Z,87.88
2022-12-25T09:02:21.113Z,87.94
2022-12-25T09:05:25.628Z,89.73
2022-12-25T09:08:28.704Z,88.66
2022-12-25T09:11:31.926Z,88.72
2022-12-25T09:14:34.843Z,88.91
2022-12-25T09:17:38.373Z,88.49
2022-12-25T09:20:41.371Z,88.10
2022-12-25T09:23:44.764Z,87.26
2022-12-25T09:26:47.698Z,87.14
2022-12-25T09:29:51.068Z,88.19
2022-12-25T09:32:54.053Z,87.35
2022-12-25T09:36:02.966Z,87.25
2022-12-25T09:39:05.923Z,86.23
2022-12-25T09:42:21.266Z,85.17
2022-12-25T09:45:32.786Z,85.45
2022-12-25T09:48:38.149Z,84.34
2022-12-25T09:51:44.602Z,83.37
2022-12-25T09:55:07.209Z,83.06
2022-12-25T09:58:13.667Z,82.30
2022-12-25T10:01:33.344Z,81.73
2022-12-25T10:04:51.965Z,81.49
2022-12-25T10:08:13.177Z,80.36
2022-12-25T10:11:38.864Z,80.29
2022-12-25T10:14:47.462Z,80.16
2022-12-25T10:18:32.088Z,79.44
2022-12-25T10:21:35.260Z,78.93
2022-12-25T10:24:49.082Z,79.55
2022-12-25T10:27:55.899Z,77.79
2022-12-25T10:31:21.376Z,77.63
2022-12-25T10:34:24.687Z,76.68
2022-12-25T10:37:27.922Z,77.07
2022-12-25T10:41:01.224Z,76.95
2022-12-25T10:44:21.239Z,76.43
2022-12-25T10:47:26.388Z,75.29
2022-12-25T10:50:30.599Z,74.67
2022-12-25T10:53:39.659Z,74.50
2022-12-25T10:57:02.086Z,74.13
2022-12-25T11:00:08.109Z,74.61
2022-12-25T11:03:22.790Z,74.51
2022-12-25T11:06:28.738Z,74.17
2022-12-25T11:09:32.533Z,73.69
2022-12-25T11:12:37.172Z,73.33
2022-12-25T11:15:46.105Z,72.89
2022-12-25T11:18:51.618Z,72.27
2022-12-25T11:21:57.403Z,70.53
2022-12-25T11:25:13.587Z,69.06
2022-12-25T11:28:17.005Z,68.14
2022-12-25T11:31:24.727Z,66.25
2022-12-25T11:34:38.600Z,66.69
2022-12-25T11:37:52.498Z,64.47
2022-12-25T11:40:59.217Z,62.14
2022-12-25T11:44:05.263Z,58.40
2022-12-25T11:47:38.274Z,57.17
2022-12-25T11:50:52.231Z,53.79
2022-12-25T11:53:59.987Z,55.44
2022-12-25T11:57:04.761Z,51.98
2022-12-25T12:00:10.412Z,47.76
2022-12-25T12:03:18.560Z,46.42
2022-12-25T12:06:57.039Z,47.60
2022-12-25T12:10:10.153Z,46.59
2022-12-25T12:13:21.345Z,44.62
2022-12-25T12:16:24.766Z,43.28
2022-12-25T12:19:30.695Z,42.08
2022-12-25T12:22:34.075Z,43.34
2022-12-25T12:25:41.930Z,40.41
2022-12-25T12:28:46.440Z,40.26
2022-12-25T12:31:50.455Z,40.39
2022-12-25T12:34:53.837Z,40.31
2022-12-25T12:38:00.236Z,38.73
2022-12-25T12:41:07.196Z,39.01
2022-12-25T12:44:11.287Z,41.74
2022-12-25T12:47:28.527Z,45.40
2022-12-25T12:50:34.279Z,47.68
2022-12-25T12:53:42.224Z,49.17
2022-12-25T12:56:55.513Z,51.47
2022-12-25T13:00:04.793Z,53.83
2022-12-25T13:03:27.621Z,54.82
2022-12-25T13:06:34.585Z,51.48
2022-12-25T13:09:49.959Z,47.58
2022-12-25T13:13:05.790Z,42.85
2022-12-25T13:16:36.826Z,42.00
2022-12-25T13:19:42.748Z,38.86
2022-12-25T13:22:52.361Z,37.38
2022-12-25T13:26:04.414Z,38.17
2022-12-25T13:29:11.493Z,38.59
2022-12-25T13:32:25.035Z,40.93
2022-12-25T13:35:28.186Z,44.08
2022-12-25T13:38:31.497Z,43.96
2022-12-25T13:42:12.470Z,41.71
2022-12-25T13:45:25.064Z,40.69
2022-12-25T13:48:28.005Z,38.12
2022-12-25T13:51:31.194Z,37.17
2022-12-25T13:54:34.176Z,39.49
2022-12-25T13:57:40.544Z,39.72
2022-12-25T14:00:53.144Z,39.65
2022-12-25T14:03:56.741Z,39.97
2022-12-25T14:07:09.310Z,41.78
2022-12-25T14:10:14.195Z,40.75
2022-12-25T14:13:17.058Z,43.39
2022-12-25T14:16:21.762Z,41.71
2022-12-25T14:19:33.442Z,45.91
2022-12-25T14:22:38.688Z,49.60
2022-12-25T14:25:44.855Z,52.56
2022-12-25T14:28:49.820Z,56.46
2022-12-25T14:31:56.153Z,57.97
2022-12-25T14:35:03.575Z,60.15
2022-12-25T14:38:06.566Z,61.38
2022-12-25T14:41:37.096Z,62.42
2022-12-25T14:44:41.224Z,63.19
2022-12-25T14:47:53.169Z,64.49
2022-12-25T14:51:03.142Z,65.05
2022-12-25T14:54:15.639Z,64.65
2022-12-25T14:57:34.077Z,65.37
2022-12-25T15:00:38.706Z,65.85
2022-12-25T15:03:43.816Z,66.12
2022-12-25T15:06:56.736Z,65.88
2022-12-25T15:10:36.496Z,64.83
2022-12-25T15:13:23.312Z,65.05
2022-12-25T15:16:47.868Z,66.10
2022-12-25T15:19:51.143Z,65.02
2022-12-25T15:23:18.587Z,64.63
2022-12-25T15:26:17.792Z,64.49
2022-12-25T15:29:38.143Z,64.63
2022-12-25T15:32:43.990Z,64.42
2022-12-25T15:35:47.085Z,65.21
2022-12-25T15:38:51.061Z,65.02
2022-12-25T15:42:13.030Z,65.50
2022-12-25T15:45:21.091Z,64.59
2022-12-25T15:48:24.000Z,65.01
2022-12-25T15:51:27.625Z,65.20
2022-12-25T15:54:31.572Z,65.18
2022-12-25T15:57:35.325Z,65.47
2022-12-25T16:00:38.236Z,64.95
2022-12-25T16:03:42.647Z,65.19
2022-12-25T16:06:45.712Z,65.14
2022-12-25T16:09:49.195Z,65.37
2022-12-25T16:12:52.112Z,65.13
2022-12-25T16:15:55.405Z,65.34
2022-12-25T16:18:59.506Z,65.35
2022-12-25T16:22:02.780Z,65.62
2022-12-25T16:25:11.785Z,64.67
2022-12-25T16:28:16.434Z,64.94
2022-12-25T16:31:19.498Z,64.92
2022-12-25T16:34:23.905Z,65.41
2022-12-25T16:37:27.769Z,65.35
2022-12-25T16:40:34.627Z,65.00
2022-12-25T16:43:37.532Z,65.43
2022-12-25T16:46:40.928Z,65.31
2022-12-25T16:49:44.274Z,65.80
2022-12-25T16:52:47.231Z,65.93
2022-12-25T16:55:50.181Z,66.54
2022-12-25T16:58:53.461Z,67.53
2022-12-25T17:01:56.565Z,67.52
2022-12-25T17:05:00.602Z,68.06
2022-12-25T17:08:03.583Z,68.44
2022-12-25T17:11:06.843Z,68.73
2022-12-25T17:14:10.388Z,68.69
2022-12-25T17:17:13.722Z,68.96
2022-12-25T17:20:19.491Z,68.83
2022-12-25T17:23:23.082Z,69.39
2022-12-25T17:26:26.104Z,69.60
2022-12-25T17:29:29.800Z,69.61
2022-12-25T17:32:34.626Z,70.13
2022-12-25T17:35:37.855Z,70.96
2022-12-25T17:38:41.155Z,71.18
2022-12-25T17:41:44.490Z,71.40
2022-12-25T17:44:47.431Z,71.05
2022-12-25T17:47:55.047Z,71.44
2022-12-25T17:51:05.997Z,71.75
2022-12-25T17:54:09.624Z,72.13
2022-12-25T17:57:12.670Z,72.82
2022-12-25T18:00:16.449Z,72.84
2022-12-25T18:03:20.723Z,72.70
2022-12-25T18:06:25.042Z,72.25
2022-12-25T18:09:28.343Z,72.99
2022-12-25T18:12:31.405Z,73.46
2022-12-25T18:15:39.953Z,72.87
2022-12-25T18:18:51.399Z,72.96
2022-12-25T18:22:09.293Z,73.28
2022-12-25T18:25:13.071Z,73.72
2022-12-25T18:28:16.808Z,74.17
2022-12-25T18:31:24.478Z,74.83
2022-12-25T18:34:27.598Z,74.78
2022-12-25T18:37:34.472Z,75.44
2022-12-25T18:40:44.433Z,76.23
2022-12-25T18:43:53.500Z,76.39
2022-12-25T18:46:58.172Z,76.51
2022-12-25T18:50:01.554Z,76.67
2022-12-25T18:53:08.081Z,76.75
2022-12-25T18:56:15.237Z,76.38
2022-12-25T18:59:19.203Z,76.26
2022-12-25T19:02:22.969Z,75.94
2022-12-25T19:05:26.367Z,75.62
2022-12-25T19:08:32.575Z,74.74
2022-12-25T19:11:46.464Z,74.78
2022-12-25T19:14:50.223Z,74.40
2022-12-25T19:17:53.830Z,73.98
2022-12-25T19:20:57.182Z,73.07
2022-12-25T19:24:00.117Z,72.87
2022-12-25T19:27:04.144Z,73.09
2022-12-25T19:30:08.547Z,73.17
2022-12-25T19:33:17.444Z,73.10
2022-12-25T19:36:21.598Z,73.52
2022-12-25T19:39:25.032Z,72.96
2022-12-25T19:42:28.271Z,73.23
2022-12-25T19:45:32.211Z,73.06
2022-12-25T19:48:36.498Z,73.86
2022-12-25T19:51:43.659Z,73.92
2022-12-25T19:54:52.847Z,74.81
2022-12-25T19:57:59.435Z,74.52
2022-12-25T20:01:09.103Z,73.71
2022-12-25T20:04:12.874Z,73.25
2022-12-25T20:07:15.910Z,72.43
2022-12-25T20:10:19.487Z,72.79
2022-12-25T20:13:23.378Z,71.89
2022-12-25T20:16:27.888Z,71.90
2022-12-25T20:19:32.543Z,71.18
2022-12-25T20:22:36.190Z,70.90
2022-12-25T20:25:41.853Z,70.92
2022-12-25T20:28:49.067Z,70.71
2022-12-25T20:31:53.365Z,70.02
2022-12-25T20:34:56.826Z,70.40
2022-12-25T20:38:00.442Z,70.22
2022-12-25T20:41:29.391Z,70.18
2022-12-25T20:44:33.040Z,69.80
2022-12-25T20:47:38.242Z,69.83
2022-12-25T20:50:41.421Z,70.34
2022-12-25T20:53:45.520Z,70.58
2022-12-25T20:56:49.149Z,70.58
2022-12-25T20:59:52.376Z,70.66
2022-12-25T21:02:56.138Z,71.93
2022-12-25T21:05:59.856Z,72.39
2022-12-25T21:09:03.273Z,72.50
2022-12-25T21:12:07.660Z,73.01
2022-12-25T21:15:15.653Z,72.88
2022-12-25T21:18:21.431Z,72.99
2022-12-25T21:21:24.264Z,72.98
2022-12-25T21:24:28.731Z,73.59
2022-12-25T21:27:31.726Z,74.45
2022-12-25T21:30:37.061Z,74.52
2022-12-25T21:33:53.804Z,75.06
2022-12-25T21:36:57.123Z,75.58
2022-12-25T21:40:00.433Z,75.79
2022-12-25T21:43:03.793Z,76.78
2022-12-25T21:46:08.633Z,76.67
2022-12-25T21:49:11.779Z,76.28
2022-12-25T21:52:15.384Z,76.74
2022-12-25T21:55:18.588Z,77.49
2022-12-25T21:58:22.637Z,78.75
2022-12-25T22:01:26.958Z,79.49
2022-12-25T22:04:30.243Z,79.53
2022-12-25T22:07:33.434Z,80.28
2022-12-25T22:10:37.302Z,80.83
2022-12-25T22:13:58.851Z,80.89
2022-12-25T22:17:20.966Z,81.30
2022-12-25T22:20:30.729Z,81.40
2022-12-25T22:23:34.033Z,81.48
2022-12-25T22:26:36.972Z,81.83
2022-12-25T22:29:40.770Z,81.89
2022-12-25T22:32:44.080Z,82.11
2022-12-25T22:35:47.522Z,82.27
2022-12-25T22:38:50.492Z,82.64
2022-12-25T22:41:55.912Z,82.76
2022-12-25T22:44:58.940Z,82.80
2022-12-25T22:48:02.188Z,82.84
2022-12-25T22:51:06.579Z,82.45
2022-12-25T22:54:09.859Z,82.51
2022-12-25T22:57:13.630Z,83.35
2022-12-25T23:00:17.033Z,83.01
2022-12-25T23:03:20.079Z,82.88
2022-12-25T23:06:23.469Z,83.05
2022-12-25T23:09:29.611Z,82.92
2022-12-25T23:12:51.415Z,82.43
2022-12-25T23:15:54.386Z,82.66
2022-12-25T23:19:16.489Z,82.57
2022-12-25T23:22:38.412Z,82.47
2022-12-25T23:26:00.300Z,82.56
2022-12-25T23:29:21.899Z,82.08
2022-12-25T23:32:28.035Z,82.20
2022-12-25T23:35:30.923Z,81.75
2022-12-25T23:38:34.173Z,81.91
2022-12-25T23:41:38.569Z,81.84
2022-12-25T23:44:42.082Z,81.97
2022-12-25T23:47:45.721Z,81.82
2022-12-25T23:50:48.905Z,81.99
2022-12-25T23:53:51.860Z,81.70
2022-12-25T23:56:57.384Z,81.65
